METAR rapporten vliegvelden

   
EHAM - Amsterdam
Gewijzigd: 17-07-2018 01:25
Helder  
Helder  
   Wind: Zuiden 11.1 km/h
Wind: Zuiden 11.1 km/h
Temperatuur: 21°C
Dauwpunt: 13°C
Vochtigheid: 60%
Barometer: 1013 hPa
Zicht: meer dan 10 km
Bewolking: Helder
EHAM 162325Z 18006KT CAVOK 21/13 Q1013 NOSIG
EHBK - Maastricht
Gewijzigd: 17-07-2018 01:25
Licht bewolkt  
Licht bewolkt  
   Wind: NW 5.6 km/h
Wind: NW 5.6 km/h
Temperatuur: 21°C
Dauwpunt: 12°C
Vochtigheid: 57%
Barometer: 1013 hPa
Bewolking: Licht bewolkt
Zicht: meer dan 10 km
Bewolking: Licht bewolkt 3600 ft
EHBK 162325Z AUTO 31003KT 260V360 9999 FEW036CB 21/12 Q1013
ELLX - Luxemburg
Gewijzigd: 17-07-2018 01:20
Helder  
Helder  
   Wind: NO 11.1 km/h
Wind: NO 11.1 km/h
Temperatuur: 21°C
Dauwpunt: 10°C
Vochtigheid: 50%
Barometer: 1014 hPa
Bewolking: Helder
Zicht: meer dan 10 km
Bewolking: Helder
ELLX 162320Z AUTO 04006KT 9999 NCD 21/10 Q1014 NOSIG
EDDL - Dusseldorf
Gewijzigd: 17-07-2018 01:20
Helder  
Helder  
   Wind: ONO 1.9 km/h
Wind: ONO 1.9 km/h
Temperatuur: 17°C
Dauwpunt: 11°C
Vochtigheid: 68%
Barometer: 1013 hPa
Zicht: meer dan 10 km
Bewolking: Helder
EDDL 162320Z 06001KT CAVOK 17/11 Q1013 NOSIG
  

Script ontwikkeld door  Saratoga-weather.org Aangepast voor de template door  Weerstation Leuven